sensor_id;sensor_type;location;lat;lon;timestamp;P1;durP1;ratioP1;P2;durP2;ratioP2
64459;SDS011;50828;53.756;21.140;2023-03-19T00:04:39;13.90;;;6.60;;
64459;SDS011;50828;53.756;21.140;2023-03-19T00:09:47;14.80;;;6.40;;
64459;SDS011;50828;53.756;21.140;2023-03-19T00:14:56;19.50;;;6.80;;
64459;SDS011;50828;53.756;21.140;2023-03-19T00:20:05;15.50;;;7.50;;
64459;SDS011;50828;53.756;21.140;2023-03-19T00:25:16;16.60;;;6.70;;
64459;SDS011;50828;53.756;21.140;2023-03-19T00:30:24;18.40;;;8.00;;
64459;SDS011;50828;53.756;21.140;2023-03-19T00:35:33;15.50;;;7.20;;
64459;SDS011;50828;53.756;21.140;2023-03-19T00:40:44;17.30;;;7.20;;
64459;SDS011;50828;53.756;21.140;2023-03-19T00:45:52;16.00;;;7.00;;
64459;SDS011;50828;53.756;21.140;2023-03-19T00:51:03;14.50;;;6.80;;
64459;SDS011;50828;53.756;21.140;2023-03-19T00:56:12;12.80;;;6.40;;
64459;SDS011;50828;53.756;21.140;2023-03-19T01:01:22;16.30;;;6.90;;
64459;SDS011;50828;53.756;21.140;2023-03-19T01:13:43;19.30;;;9.00;;
64459;SDS011;50828;53.756;21.140;2023-03-19T01:18:52;17.20;;;8.00;;
64459;SDS011;50828;53.756;21.140;2023-03-19T01:24:01;13.80;;;6.90;;
64459;SDS011;50828;53.756;21.140;2023-03-19T01:29:09;18.10;;;7.10;;
64459;SDS011;50828;53.756;21.140;2023-03-19T01:34:17;16.30;;;7.00;;
64459;SDS011;50828;53.756;21.140;2023-03-19T01:39:31;16.10;;;7.20;;
64459;SDS011;50828;53.756;21.140;2023-03-19T01:44:43;20.20;;;8.00;;
64459;SDS011;50828;53.756;21.140;2023-03-19T01:50:26;17.70;;;7.30;;
64459;SDS011;50828;53.756;21.140;2023-03-19T01:56:16;16.10;;;7.20;;
64459;SDS011;50828;53.756;21.140;2023-03-19T02:02:00;19.20;;;7.60;;
64459;SDS011;50828;53.756;21.140;2023-03-19T02:07:15;15.40;;;7.20;;
64459;SDS011;50828;53.756;21.140;2023-03-19T02:12:25;15.30;;;7.00;;
64459;SDS011;50828;53.756;21.140;2023-03-19T02:17:33;14.20;;;7.20;;
64459;SDS011;50828;53.756;21.140;2023-03-19T02:22:41;16.70;;;7.50;;
64459;SDS011;50828;53.756;21.140;2023-03-19T02:27:58;20.10;;;7.60;;
64459;SDS011;50828;53.756;21.140;2023-03-19T02:33:08;18.90;;;8.10;;
64459;SDS011;50828;53.756;21.140;2023-03-19T02:38:17;17.10;;;7.40;;
64459;SDS011;50828;53.756;21.140;2023-03-19T02:43:25;16.50;;;7.20;;
64459;SDS011;50828;53.756;21.140;2023-03-19T02:48:33;20.30;;;8.60;;
64459;SDS011;50828;53.756;21.140;2023-03-19T02:53:41;16.60;;;7.70;;
64459;SDS011;50828;53.756;21.140;2023-03-19T02:58:48;19.70;;;8.20;;
64459;SDS011;50828;53.756;21.140;2023-03-19T03:03:57;18.20;;;8.00;;
64459;SDS011;50828;53.756;21.140;2023-03-19T03:09:05;18.20;;;7.60;;
64459;SDS011;50828;53.756;21.140;2023-03-19T03:14:13;22.60;;;8.60;;
64459;SDS011;50828;53.756;21.140;2023-03-19T03:19:22;15.70;;;7.40;;
64459;SDS011;50828;53.756;21.140;2023-03-19T03:24:31;18.20;;;8.10;;
64459;SDS011;50828;53.756;21.140;2023-03-19T03:29:39;16.80;;;7.40;;
64459;SDS011;50828;53.756;21.140;2023-03-19T03:34:48;15.10;;;8.20;;
64459;SDS011;50828;53.756;21.140;2023-03-19T03:39:56;16.90;;;8.50;;
64459;SDS011;50828;53.756;21.140;2023-03-19T03:45:05;15.50;;;8.20;;
64459;SDS011;50828;53.756;21.140;2023-03-19T03:50:16;15.10;;;7.60;;
64459;SDS011;50828;53.756;21.140;2023-03-19T03:55:25;17.70;;;7.80;;
64459;SDS011;50828;53.756;21.140;2023-03-19T04:00:33;16.10;;;8.00;;
64459;SDS011;50828;53.756;21.140;2023-03-19T04:05:41;18.20;;;7.70;;
64459;SDS011;50828;53.756;21.140;2023-03-19T04:10:50;18.10;;;8.10;;
64459;SDS011;50828;53.756;21.140;2023-03-19T04:15:57;18.40;;;7.80;;
64459;SDS011;50828;53.756;21.140;2023-03-19T04:21:05;14.70;;;8.50;;
64459;SDS011;50828;53.756;21.140;2023-03-19T04:26:13;17.40;;;8.70;;
64459;SDS011;50828;53.756;21.140;2023-03-19T04:31:20;20.40;;;8.50;;
64459;SDS011;50828;53.756;21.140;2023-03-19T04:36:28;16.90;;;7.80;;
64459;SDS011;50828;53.756;21.140;2023-03-19T04:41:36;16.20;;;7.90;;
64459;SDS011;50828;53.756;21.140;2023-03-19T04:46:56;16.30;;;7.30;;
64459;SDS011;50828;53.756;21.140;2023-03-19T04:52:08;15.60;;;7.70;;
64459;SDS011;50828;53.756;21.140;2023-03-19T04:57:16;22.00;;;9.10;;
64459;SDS011;50828;53.756;21.140;2023-03-19T05:02:25;17.30;;;8.50;;
64459;SDS011;50828;53.756;21.140;2023-03-19T05:07:33;19.00;;;8.10;;
64459;SDS011;50828;53.756;21.140;2023-03-19T05:12:41;16.70;;;8.10;;
64459;SDS011;50828;53.756;21.140;2023-03-19T05:17:49;20.20;;;8.60;;
64459;SDS011;50828;53.756;21.140;2023-03-19T05:22:59;17.50;;;8.30;;
64459;SDS011;50828;53.756;21.140;2023-03-19T05:28:15;17.80;;;8.70;;
64459;SDS011;50828;53.756;21.140;2023-03-19T05:33:23;17.00;;;8.40;;
64459;SDS011;50828;53.756;21.140;2023-03-19T05:38:31;17.50;;;8.30;;
64459;SDS011;50828;53.756;21.140;2023-03-19T05:43:43;12.70;;;5.70;;
64459;SDS011;50828;53.756;21.140;2023-03-19T05:49:02;15.10;;;7.80;;
64459;SDS011;50828;53.756;21.140;2023-03-19T05:54:10;14.10;;;7.40;;
64459;SDS011;50828;53.756;21.140;2023-03-19T05:59:31;17.80;;;8.30;;
64459;SDS011;50828;53.756;21.140;2023-03-19T06:04:57;18.10;;;9.00;;
64459;SDS011;50828;53.756;21.140;2023-03-19T06:10:06;17.70;;;8.70;;
64459;SDS011;50828;53.756;21.140;2023-03-19T06:15:16;16.10;;;7.90;;
64459;SDS011;50828;53.756;21.140;2023-03-19T06:20:39;18.10;;;7.80;;
64459;SDS011;50828;53.756;21.140;2023-03-19T06:25:48;15.70;;;7.90;;
64459;SDS011;50828;53.756;21.140;2023-03-19T06:30:56;15.40;;;7.70;;
64459;SDS011;50828;53.756;21.140;2023-03-19T06:36:28;15.50;;;7.70;;
64459;SDS011;50828;53.756;21.140;2023-03-19T06:41:37;14.80;;;7.60;;
64459;SDS011;50828;53.756;21.140;2023-03-19T06:46:51;18.70;;;9.00;;
64459;SDS011;50828;53.756;21.140;2023-03-19T06:51:59;22.10;;;10.30;;
64459;SDS011;50828;53.756;21.140;2023-03-19T06:57:06;27.30;;;11.70;;
64459;SDS011;50828;53.756;21.140;2023-03-19T07:02:14;25.40;;;11.30;;
64459;SDS011;50828;53.756;21.140;2023-03-19T07:07:22;22.90;;;11.90;;
64459;SDS011;50828;53.756;21.140;2023-03-19T07:12:29;27.00;;;11.80;;
64459;SDS011;50828;53.756;21.140;2023-03-19T07:17:37;25.10;;;11.70;;
64459;SDS011;50828;53.756;21.140;2023-03-19T07:22:44;22.20;;;10.20;;
64459;SDS011;50828;53.756;21.140;2023-03-19T07:27:54;20.50;;;10.00;;
64459;SDS011;50828;53.756;21.140;2023-03-19T07:33:02;19.40;;;10.20;;
64459;SDS011;50828;53.756;21.140;2023-03-19T07:38:10;23.10;;;9.90;;
64459;SDS011;50828;53.756;21.140;2023-03-19T07:43:17;16.00;;;8.30;;
64459;SDS011;50828;53.756;21.140;2023-03-19T07:48:25;19.70;;;8.40;;
64459;SDS011;50828;53.756;21.140;2023-03-19T07:53:33;21.40;;;9.70;;
64459;SDS011;50828;53.756;21.140;2023-03-19T07:58:40;20.30;;;10.90;;
64459;SDS011;50828;53.756;21.140;2023-03-19T08:03:48;22.90;;;10.10;;
64459;SDS011;50828;53.756;21.140;2023-03-19T08:08:55;20.30;;;10.00;;
64459;SDS011;50828;53.756;21.140;2023-03-19T08:14:03;20.70;;;10.70;;
64459;SDS011;50828;53.756;21.140;2023-03-19T08:19:10;25.00;;;10.50;;
64459;SDS011;50828;53.756;21.140;2023-03-19T08:24:18;22.40;;;10.90;;
64459;SDS011;50828;53.756;21.140;2023-03-19T08:29:26;27.40;;;11.80;;
64459;SDS011;50828;53.756;21.140;2023-03-19T08:34:33;30.90;;;13.00;;
64459;SDS011;50828;53.756;21.140;2023-03-19T08:39:41;29.50;;;13.40;;
64459;SDS011;50828;53.756;21.140;2023-03-19T08:44:48;29.90;;;13.60;;
64459;SDS011;50828;53.756;21.140;2023-03-19T08:49:56;34.40;;;15.00;;
64459;SDS011;50828;53.756;21.140;2023-03-19T08:55:04;32.00;;;14.60;;
64459;SDS011;50828;53.756;21.140;2023-03-19T09:00:14;30.50;;;13.60;;
64459;SDS011;50828;53.756;21.140;2023-03-19T09:05:23;32.30;;;14.00;;
64459;SDS011;50828;53.756;21.140;2023-03-19T09:10:32;31.80;;;15.00;;
64459;SDS011;50828;53.756;21.140;2023-03-19T09:15:40;30.80;;;14.70;;
64459;SDS011;50828;53.756;21.140;2023-03-19T09:20:47;35.40;;;15.30;;
64459;SDS011;50828;53.756;21.140;2023-03-19T09:25:55;32.30;;;14.40;;
64459;SDS011;50828;53.756;21.140;2023-03-19T09:31:03;35.90;;;15.40;;
64459;SDS011;50828;53.756;21.140;2023-03-19T09:36:14;31.50;;;14.10;;
64459;SDS011;50828;53.756;21.140;2023-03-19T09:41:25;32.30;;;14.00;;
64459;SDS011;50828;53.756;21.140;2023-03-19T09:46:39;31.70;;;14.00;;
64459;SDS011;50828;53.756;21.140;2023-03-19T09:51:52;32.20;;;13.80;;
64459;SDS011;50828;53.756;21.140;2023-03-19T09:57:03;32.90;;;15.10;;
64459;SDS011;50828;53.756;21.140;2023-03-19T10:02:25;30.60;;;14.00;;
64459;SDS011;50828;53.756;21.140;2023-03-19T10:07:50;29.60;;;13.80;;
64459;SDS011;50828;53.756;21.140;2023-03-19T10:13:24;33.10;;;14.80;;
64459;SDS011;50828;53.756;21.140;2023-03-19T10:23:53;29.20;;;13.10;;
64459;SDS011;50828;53.756;21.140;2023-03-19T10:29:08;30.90;;;13.40;;
64459;SDS011;50828;53.756;21.140;2023-03-19T10:34:29;28.60;;;12.40;;
64459;SDS011;50828;53.756;21.140;2023-03-19T10:39:38;30.10;;;13.00;;
64459;SDS011;50828;53.756;21.140;2023-03-19T10:44:49;26.90;;;11.70;;
64459;SDS011;50828;53.756;21.140;2023-03-19T10:50:01;25.50;;;12.00;;
64459;SDS011;50828;53.756;21.140;2023-03-19T10:55:14;29.50;;;13.70;;
64459;SDS011;50828;53.756;21.140;2023-03-19T11:00:24;27.80;;;13.00;;
64459;SDS011;50828;53.756;21.140;2023-03-19T11:05:38;26.90;;;12.20;;
64459;SDS011;50828;53.756;21.140;2023-03-19T11:10:45;31.40;;;14.30;;
64459;SDS011;50828;53.756;21.140;2023-03-19T11:15:56;28.80;;;12.50;;
64459;SDS011;50828;53.756;21.140;2023-03-19T11:21:07;29.10;;;13.70;;
64459;SDS011;50828;53.756;21.140;2023-03-19T11:26:26;27.90;;;13.80;;
64459;SDS011;50828;53.756;21.140;2023-03-19T11:31:36;25.10;;;11.90;;
64459;SDS011;50828;53.756;21.140;2023-03-19T11:36:53;25.00;;;13.10;;
64459;SDS011;50828;53.756;21.140;2023-03-19T11:42:24;34.30;;;13.60;;
64459;SDS011;50828;53.756;21.140;2023-03-19T11:47:44;24.30;;;12.30;;
64459;SDS011;50828;53.756;21.140;2023-03-19T11:53:07;22.80;;;11.10;;
64459;SDS011;50828;53.756;21.140;2023-03-19T12:04:18;24.80;;;11.80;;
64459;SDS011;50828;53.756;21.140;2023-03-19T12:09:44;20.30;;;10.50;;
64459;SDS011;50828;53.756;21.140;2023-03-19T12:15:03;24.30;;;10.80;;
64459;SDS011;50828;53.756;21.140;2023-03-19T12:20:24;19.40;;;10.20;;
64459;SDS011;50828;53.756;21.140;2023-03-19T12:25:39;21.80;;;10.50;;
64459;SDS011;50828;53.756;21.140;2023-03-19T12:31:21;22.60;;;11.10;;
64459;SDS011;50828;53.756;21.140;2023-03-19T12:36:37;25.90;;;12.20;;
64459;SDS011;50828;53.756;21.140;2023-03-19T12:41:50;23.50;;;10.30;;
64459;SDS011;50828;53.756;21.140;2023-03-19T12:47:02;21.00;;;11.20;;
64459;SDS011;50828;53.756;21.140;2023-03-19T12:52:14;19.60;;;9.00;;
64459;SDS011;50828;53.756;21.140;2023-03-19T12:57:28;18.80;;;10.00;;
64459;SDS011;50828;53.756;21.140;2023-03-19T13:02:41;21.90;;;10.80;;
64459;SDS011;50828;53.756;21.140;2023-03-19T13:07:56;23.00;;;10.30;;
64459;SDS011;50828;53.756;21.140;2023-03-19T13:13:14;22.00;;;10.50;;
64459;SDS011;50828;53.756;21.140;2023-03-19T13:18:34;17.30;;;10.00;;
64459;SDS011;50828;53.756;21.140;2023-03-19T13:23:50;19.40;;;10.80;;
64459;SDS011;50828;53.756;21.140;2023-03-19T13:29:13;28.00;;;11.60;;
64459;SDS011;50828;53.756;21.140;2023-03-19T13:34:25;19.40;;;9.80;;
64459;SDS011;50828;53.756;21.140;2023-03-19T13:39:36;18.40;;;10.30;;
64459;SDS011;50828;53.756;21.140;2023-03-19T13:44:48;20.60;;;10.00;;
64459;SDS011;50828;53.756;21.140;2023-03-19T13:50:09;16.20;;;9.00;;
64459;SDS011;50828;53.756;21.140;2023-03-19T13:55:32;17.60;;;8.90;;
64459;SDS011;50828;53.756;21.140;2023-03-19T14:00:58;21.20;;;10.20;;
64459;SDS011;50828;53.756;21.140;2023-03-19T14:06:11;20.10;;;9.50;;
64459;SDS011;50828;53.756;21.140;2023-03-19T14:11:37;17.60;;;9.40;;
64459;SDS011;50828;53.756;21.140;2023-03-19T14:16:45;19.40;;;9.00;;
64459;SDS011;50828;53.756;21.140;2023-03-19T14:22:07;17.80;;;9.60;;
64459;SDS011;50828;53.756;21.140;2023-03-19T14:27:24;22.50;;;9.90;;
64459;SDS011;50828;53.756;21.140;2023-03-19T14:32:37;18.40;;;9.20;;
64459;SDS011;50828;53.756;21.140;2023-03-19T14:37:51;19.30;;;9.20;;
64459;SDS011;50828;53.756;21.140;2023-03-19T14:43:02;21.80;;;9.60;;
64459;SDS011;50828;53.756;21.140;2023-03-19T14:48:29;18.20;;;9.20;;
64459;SDS011;50828;53.756;21.140;2023-03-19T14:53:57;18.40;;;9.60;;
64459;SDS011;50828;53.756;21.140;2023-03-19T14:59:09;19.40;;;9.80;;
64459;SDS011;50828;53.756;21.140;2023-03-19T15:04:19;16.90;;;9.20;;
64459;SDS011;50828;53.756;21.140;2023-03-19T15:09:29;22.30;;;9.50;;
64459;SDS011;50828;53.756;21.140;2023-03-19T15:14:44;21.00;;;9.30;;
64459;SDS011;50828;53.756;21.140;2023-03-19T15:20:12;18.40;;;9.30;;
64459;SDS011;50828;53.756;21.140;2023-03-19T15:25:22;17.20;;;9.20;;
64459;SDS011;50828;53.756;21.140;2023-03-19T15:30:29;18.80;;;9.70;;
64459;SDS011;50828;53.756;21.140;2023-03-19T15:35:56;18.30;;;9.10;;
64459;SDS011;50828;53.756;21.140;2023-03-19T15:41:10;19.80;;;10.70;;
64459;SDS011;50828;53.756;21.140;2023-03-19T15:46:19;17.10;;;10.20;;
64459;SDS011;50828;53.756;21.140;2023-03-19T15:51:30;21.80;;;12.10;;
64459;SDS011;50828;53.756;21.140;2023-03-19T15:56:38;22.30;;;11.20;;
64459;SDS011;50828;53.756;21.140;2023-03-19T16:01:46;20.90;;;11.00;;
64459;SDS011;50828;53.756;21.140;2023-03-19T16:06:55;23.60;;;12.60;;
64459;SDS011;50828;53.756;21.140;2023-03-19T16:12:21;23.40;;;13.50;;
64459;SDS011;50828;53.756;21.140;2023-03-19T16:17:40;26.50;;;13.90;;
64459;SDS011;50828;53.756;21.140;2023-03-19T16:22:49;26.50;;;14.00;;
64459;SDS011;50828;53.756;21.140;2023-03-19T16:28:01;32.30;;;16.60;;
64459;SDS011;50828;53.756;21.140;2023-03-19T16:33:19;46.80;;;23.90;;
64459;SDS011;50828;53.756;21.140;2023-03-19T16:38:48;72.20;;;33.70;;
64459;SDS011;50828;53.756;21.140;2023-03-19T16:44:09;90.50;;;39.10;;
64459;SDS011;50828;53.756;21.140;2023-03-19T16:49:20;108.00;;;42.20;;
64459;SDS011;50828;53.756;21.140;2023-03-19T16:54:28;70.00;;;28.20;;
64459;SDS011;50828;53.756;21.140;2023-03-19T16:59:36;33.90;;;15.40;;
64459;SDS011;50828;53.756;21.140;2023-03-19T17:04:44;22.40;;;11.70;;
64459;SDS011;50828;53.756;21.140;2023-03-19T17:09:52;22.20;;;10.70;;
64459;SDS011;50828;53.756;21.140;2023-03-19T17:14:59;22.70;;;10.30;;
64459;SDS011;50828;53.756;21.140;2023-03-19T17:20:08;20.70;;;10.50;;
64459;SDS011;50828;53.756;21.140;2023-03-19T17:25:20;21.50;;;10.40;;
64459;SDS011;50828;53.756;21.140;2023-03-19T17:30:27;23.00;;;11.20;;
64459;SDS011;50828;53.756;21.140;2023-03-19T17:35:35;23.40;;;10.60;;
64459;SDS011;50828;53.756;21.140;2023-03-19T17:40:43;20.20;;;10.80;;
64459;SDS011;50828;53.756;21.140;2023-03-19T17:45:52;21.90;;;12.60;;
64459;SDS011;50828;53.756;21.140;2023-03-19T17:51:00;31.20;;;13.80;;
64459;SDS011;50828;53.756;21.140;2023-03-19T17:56:09;25.20;;;14.10;;
64459;SDS011;50828;53.756;21.140;2023-03-19T18:01:21;31.10;;;16.50;;
64459;SDS011;50828;53.756;21.140;2023-03-19T18:06:32;38.90;;;20.20;;
64459;SDS011;50828;53.756;21.140;2023-03-19T18:11:48;41.00;;;21.00;;
64459;SDS011;50828;53.756;21.140;2023-03-19T18:16:55;39.00;;;21.50;;
64459;SDS011;50828;53.756;21.140;2023-03-19T18:22:04;48.20;;;22.30;;
64459;SDS011;50828;53.756;21.140;2023-03-19T18:27:16;38.30;;;20.80;;
64459;SDS011;50828;53.756;21.140;2023-03-19T18:32:28;46.50;;;21.20;;
64459;SDS011;50828;53.756;21.140;2023-03-19T18:37:37;36.20;;;18.40;;
64459;SDS011;50828;53.756;21.140;2023-03-19T18:42:45;31.50;;;15.70;;
64459;SDS011;50828;53.756;21.140;2023-03-19T18:47:53;33.10;;;15.50;;
64459;SDS011;50828;53.756;21.140;2023-03-19T18:53:01;28.50;;;14.70;;
64459;SDS011;50828;53.756;21.140;2023-03-19T18:58:10;28.30;;;14.40;;
64459;SDS011;50828;53.756;21.140;2023-03-19T19:03:23;30.70;;;15.70;;
64459;SDS011;50828;53.756;21.140;2023-03-19T19:08:33;25.40;;;13.30;;
64459;SDS011;50828;53.756;21.140;2023-03-19T19:13:40;28.60;;;13.70;;
64459;SDS011;50828;53.756;21.140;2023-03-19T19:18:58;25.80;;;13.40;;
64459;SDS011;50828;53.756;21.140;2023-03-19T19:24:07;25.20;;;12.90;;
64459;SDS011;50828;53.756;21.140;2023-03-19T19:29:19;27.70;;;13.00;;
64459;SDS011;50828;53.756;21.140;2023-03-19T19:34:29;25.70;;;13.00;;
64459;SDS011;50828;53.756;21.140;2023-03-19T19:39:36;26.10;;;12.50;;
64459;SDS011;50828;53.756;21.140;2023-03-19T19:44:44;29.90;;;13.50;;
64459;SDS011;50828;53.756;21.140;2023-03-19T19:49:55;26.40;;;13.20;;
64459;SDS011;50828;53.756;21.140;2023-03-19T19:55:03;51.10;;;18.30;;
64459;SDS011;50828;53.756;21.140;2023-03-19T20:05:26;77.70;;;24.90;;
64459;SDS011;50828;53.756;21.140;2023-03-19T20:10:36;65.80;;;23.00;;
64459;SDS011;50828;53.756;21.140;2023-03-19T20:15:44;72.00;;;23.70;;
64459;SDS011;50828;53.756;21.140;2023-03-19T20:20:51;89.90;;;28.70;;
64459;SDS011;50828;53.756;21.140;2023-03-19T20:25:59;65.40;;;22.40;;
64459;SDS011;50828;53.756;21.140;2023-03-19T20:31:08;44.00;;;18.60;;
64459;SDS011;50828;53.756;21.140;2023-03-19T20:36:24;40.40;;;16.60;;
64459;SDS011;50828;53.756;21.140;2023-03-19T20:41:32;49.20;;;18.00;;
64459;SDS011;50828;53.756;21.140;2023-03-19T20:46:40;45.70;;;19.40;;
64459;SDS011;50828;53.756;21.140;2023-03-19T20:51:47;42.60;;;17.50;;
64459;SDS011;50828;53.756;21.140;2023-03-19T20:56:55;39.00;;;16.80;;
64459;SDS011;50828;53.756;21.140;2023-03-19T21:02:08;40.30;;;17.50;;
64459;SDS011;50828;53.756;21.140;2023-03-19T21:07:24;38.10;;;15.60;;
64459;SDS011;50828;53.756;21.140;2023-03-19T21:12:36;29.60;;;14.10;;
64459;SDS011;50828;53.756;21.140;2023-03-19T21:17:43;31.30;;;13.80;;
64459;SDS011;50828;53.756;21.140;2023-03-19T21:22:53;25.40;;;12.90;;
64459;SDS011;50828;53.756;21.140;2023-03-19T21:28:03;28.30;;;13.80;;
64459;SDS011;50828;53.756;21.140;2023-03-19T21:33:23;31.90;;;14.40;;
64459;SDS011;50828;53.756;21.140;2023-03-19T21:38:32;38.60;;;14.00;;
64459;SDS011;50828;53.756;21.140;2023-03-19T21:43:40;27.90;;;13.00;;
64459;SDS011;50828;53.756;21.140;2023-03-19T21:48:50;31.70;;;14.10;;
64459;SDS011;50828;53.756;21.140;2023-03-19T21:53:59;32.10;;;13.50;;
64459;SDS011;50828;53.756;21.140;2023-03-19T21:59:11;29.20;;;13.50;;
64459;SDS011;50828;53.756;21.140;2023-03-19T22:04:22;28.90;;;13.70;;
64459;SDS011;50828;53.756;21.140;2023-03-19T22:09:29;27.80;;;13.00;;
64459;SDS011;50828;53.756;21.140;2023-03-19T22:14:37;29.00;;;12.70;;
64459;SDS011;50828;53.756;21.140;2023-03-19T22:19:45;37.30;;;13.60;;
64459;SDS011;50828;53.756;21.140;2023-03-19T22:24:52;31.90;;;13.20;;
64459;SDS011;50828;53.756;21.140;2023-03-19T22:30:04;30.30;;;14.50;;
64459;SDS011;50828;53.756;21.140;2023-03-19T22:35:18;32.10;;;15.40;;
64459;SDS011;50828;53.756;21.140;2023-03-19T22:40:26;33.60;;;14.50;;
64459;SDS011;50828;53.756;21.140;2023-03-19T22:45:34;39.50;;;16.40;;
64459;SDS011;50828;53.756;21.140;2023-03-19T22:50:41;36.50;;;17.30;;
64459;SDS011;50828;53.756;21.140;2023-03-19T22:55:49;47.10;;;19.30;;
64459;SDS011;50828;53.756;21.140;2023-03-19T23:00:57;45.10;;;19.80;;
64459;SDS011;50828;53.756;21.140;2023-03-19T23:06:05;45.20;;;19.40;;
64459;SDS011;50828;53.756;21.140;2023-03-19T23:11:32;40.90;;;19.10;;
64459;SDS011;50828;53.756;21.140;2023-03-19T23:16:43;44.30;;;18.20;;
64459;SDS011;50828;53.756;21.140;2023-03-19T23:21:52;38.60;;;18.10;;
64459;SDS011;50828;53.756;21.140;2023-03-19T23:27:00;43.50;;;18.20;;
64459;SDS011;50828;53.756;21.140;2023-03-19T23:32:09;39.00;;;17.10;;
64459;SDS011;50828;53.756;21.140;2023-03-19T23:37:17;34.30;;;15.40;;
64459;SDS011;50828;53.756;21.140;2023-03-19T23:42:26;30.20;;;14.10;;
64459;SDS011;50828;53.756;21.140;2023-03-19T23:47:36;31.40;;;12.00;;
64459;SDS011;50828;53.756;21.140;2023-03-19T23:52:43;22.20;;;11.40;;
64459;SDS011;50828;53.756;21.140;2023-03-19T23:57:51;24.70;;;12.80;;
